createdAt,value
2023-03-16T00:02:01.546Z,2.95
2023-03-16T00:04:47.573Z,2.83
2023-03-16T00:07:30.694Z,2.75
2023-03-16T00:10:10.840Z,2.77
2023-03-16T00:12:54.649Z,2.66
2023-03-16T00:15:35.474Z,2.55
2023-03-16T00:18:21.597Z,2.51
2023-03-16T00:21:02.833Z,2.55
2023-03-16T00:23:42.354Z,2.48
2023-03-16T00:26:23.186Z,2.41
2023-03-16T00:29:08.770Z,2.35
2023-03-16T00:31:52.482Z,2.30
2023-03-16T00:34:30.191Z,2.23
2023-03-16T00:37:18.685Z,2.28
2023-03-16T00:39:59.891Z,2.23
2023-03-16T00:42:44.648Z,2.10
2023-03-16T00:45:23.726Z,2.01
2023-03-16T00:48:09.757Z,2.06
2023-03-16T00:50:50.843Z,1.93
2023-03-16T00:53:30.456Z,1.76
2023-03-16T00:56:17.711Z,1.62
2023-03-16T00:59:05.911Z,1.56
2023-03-16T01:01:47.001Z,1.45
2023-03-16T01:04:32.702Z,1.35
2023-03-16T01:07:16.579Z,1.11
2023-03-16T01:10:02.946Z,0.87
2023-03-16T01:12:46.214Z,0.78
2023-03-16T01:15:27.376Z,0.62
2023-03-16T01:18:07.601Z,0.47
2023-03-16T01:20:50.592Z,0.34
2023-03-16T01:23:36.812Z,0.14
2023-03-16T01:26:12.898Z,-0.01
2023-03-16T01:28:53.738Z,-0.04
2023-03-16T01:31:39.685Z,-0.06
2023-03-16T01:34:31.895Z,-0.19
2023-03-16T01:37:12.677Z,-0.17
2023-03-16T01:40:07.958Z,-0.27
2023-03-16T01:43:02.526Z,-0.26
2023-03-16T01:46:02.596Z,0.05
2023-03-16T01:48:57.711Z,0.00
2023-03-16T01:51:59.238Z,0.03
2023-03-16T01:54:51.334Z,0.16
2023-03-16T01:57:39.643Z,0.15
2023-03-16T02:00:24.020Z,0.11
2023-03-16T02:03:25.681Z,0.17
2023-03-16T02:06:23.356Z,0.17
2023-03-16T02:09:04.319Z,0.14
2023-03-16T02:11:44.780Z,0.14
2023-03-16T02:14:28.506Z,0.10
2023-03-16T02:17:14.495Z,-0.03
2023-03-16T02:20:13.693Z,-0.15
2023-03-16T02:22:57.473Z,-0.27
2023-03-16T02:25:54.425Z,-0.29
2023-03-16T02:28:48.745Z,-0.27
2023-03-16T02:31:27.746Z,-0.37
2023-03-16T02:34:11.471Z,-0.42
2023-03-16T02:36:57.729Z,-0.49
2023-03-16T02:39:36.834Z,-0.47
2023-03-16T02:42:19.003Z,-0.47
2023-03-16T02:45:06.307Z,-0.53
2023-03-16T02:47:47.894Z,-0.40
2023-03-16T02:50:47.701Z,-0.60
2023-03-16T02:53:32.456Z,-0.70
2023-03-16T02:56:09.576Z,-0.67
2023-03-16T02:58:57.396Z,-0.75
2023-03-16T03:01:35.086Z,-0.81
2023-03-16T03:04:23.551Z,-0.85
2023-03-16T03:07:05.034Z,-0.84
2023-03-16T03:10:04.318Z,-0.83
2023-03-16T03:12:51.164Z,-0.71
2023-03-16T03:15:30.910Z,-0.67
2023-03-16T03:18:17.577Z,-0.49
2023-03-16T03:20:55.454Z,-0.51
2023-03-16T03:23:42.309Z,-0.43
2023-03-16T03:26:21.345Z,-0.45
2023-03-16T03:29:04.938Z,-0.41
2023-03-16T03:31:48.434Z,-0.41
2023-03-16T03:34:26.712Z,-0.22
2023-03-16T03:37:04.384Z,-0.31
2023-03-16T03:39:46.312Z,-0.26
2023-03-16T03:42:29.503Z,-0.16
2023-03-16T03:45:14.169Z,-0.17
2023-03-16T03:47:57.630Z,-0.15
2023-03-16T03:50:38.874Z,-0.24
2023-03-16T03:53:35.311Z,-0.29
2023-03-16T03:56:27.394Z,-0.40
2023-03-16T03:59:08.209Z,-0.47
2023-03-16T04:02:12.874Z,-0.56
2023-03-16T04:04:58.084Z,-0.74
2023-03-16T04:07:41.162Z,-0.81
2023-03-16T04:10:31.225Z,-0.92
2023-03-16T04:13:15.886Z,-1.06
2023-03-16T04:16:01.939Z,-1.27
2023-03-16T04:18:50.614Z,-1.32
2023-03-16T04:21:35.580Z,-1.50
2023-03-16T04:24:23.658Z,-1.64
2023-03-16T04:27:08.572Z,-1.74
2023-03-16T04:30:01.593Z,-1.82
2023-03-16T04:32:36.804Z,-1.90
2023-03-16T04:35:13.348Z,-2.00
2023-03-16T04:38:12.201Z,-2.07
2023-03-16T04:41:06.258Z,-2.17
2023-03-16T04:43:53.736Z,-2.29
2023-03-16T04:46:36.057Z,-2.29
2023-03-16T04:49:22.020Z,-2.39
2023-03-16T04:52:05.774Z,-2.43
2023-03-16T04:54:50.450Z,-2.43
2023-03-16T04:57:39.474Z,-2.48
2023-03-16T05:00:25.296Z,-2.50
2023-03-16T05:03:22.941Z,-2.59
2023-03-16T05:06:09.590Z,-2.54
2023-03-16T05:09:08.281Z,-2.57
2023-03-16T05:11:45.992Z,-2.58
2023-03-16T05:14:30.263Z,-2.59
2023-03-16T05:17:22.306Z,-2.57
2023-03-16T05:20:15.862Z,-2.58
2023-03-16T05:23:03.386Z,-2.63
2023-03-16T05:25:49.385Z,-2.64
2023-03-16T05:28:32.545Z,-2.62
2023-03-16T05:31:19.151Z,-2.60
2023-03-16T05:34:04.916Z,-2.49
2023-03-16T05:36:46.383Z,-2.64
2023-03-16T05:39:28.849Z,-2.46
2023-03-16T05:42:10.281Z,-2.30
2023-03-16T05:45:11.528Z,-2.20
2023-03-16T05:48:11.523Z,-2.19
2023-03-16T05:51:09.600Z,-2.10
2023-03-16T05:53:51.128Z,-1.91
2023-03-16T05:56:49.275Z,-1.50
2023-03-16T05:59:39.699Z,-1.24
2023-03-16T06:02:23.621Z,-0.77
2023-03-16T06:05:18.965Z,-0.54
2023-03-16T06:08:03.694Z,-0.16
2023-03-16T06:11:07.937Z,0.18
2023-03-16T06:13:46.464Z,0.69
2023-03-16T06:16:39.602Z,0.96
2023-03-16T06:19:23.776Z,1.43
2023-03-16T06:22:14.973Z,1.83
2023-03-16T06:24:54.273Z,2.22
2023-03-16T06:27:34.722Z,2.55
2023-03-16T06:30:32.566Z,2.91
2023-03-16T06:33:15.964Z,3.40
2023-03-16T06:36:03.981Z,3.71
2023-03-16T06:38:55.594Z,4.09
2023-03-16T06:41:38.801Z,4.27
2023-03-16T06:44:21.708Z,4.08
2023-03-16T06:47:29.377Z,4.46
2023-03-16T06:50:09.459Z,4.37
2023-03-16T06:53:00.229Z,4.93
2023-03-16T06:55:51.500Z,5.31
2023-03-16T06:58:35.038Z,5.10
2023-03-16T07:01:20.268Z,5.23
2023-03-16T07:03:58.612Z,5.31
2023-03-16T07:06:48.940Z,5.36
2023-03-16T07:09:27.957Z,5.65
2023-03-16T07:12:10.694Z,5.60
2023-03-16T07:15:00.013Z,5.74
2023-03-16T07:17:51.638Z,5.86
2023-03-16T07:20:32.272Z,5.79
2023-03-16T07:23:13.490Z,5.92
2023-03-16T07:25:54.856Z,5.73
2023-03-16T07:28:33.164Z,5.92
2023-03-16T07:31:25.347Z,6.11
2023-03-16T07:34:09.842Z,6.21
2023-03-16T07:36:52.840Z,6.06
2023-03-16T07:39:46.768Z,6.35
2023-03-16T07:42:35.651Z,6.61
2023-03-16T07:45:34.458Z,6.68
2023-03-16T07:48:25.339Z,6.87
2023-03-16T07:51:05.015Z,7.14
2023-03-16T07:53:47.344Z,6.93
2023-03-16T07:56:49.365Z,7.25
2023-03-16T07:59:53.814Z,7.16
2023-03-16T08:02:35.280Z,7.11
2023-03-16T08:05:15.535Z,7.21
2023-03-16T08:07:58.551Z,7.34
2023-03-16T08:10:44.207Z,7.51
2023-03-16T08:13:38.412Z,7.22
2023-03-16T08:16:22.348Z,7.36
2023-03-16T08:19:05.515Z,7.43
2023-03-16T08:22:01.258Z,7.87
2023-03-16T08:24:46.839Z,8.13
2023-03-16T08:27:27.525Z,7.78
2023-03-16T08:30:12.025Z,7.88
2023-03-16T08:33:04.601Z,7.95
2023-03-16T08:35:50.422Z,8.13
2023-03-16T08:38:32.398Z,7.94
2023-03-16T08:41:17.160Z,8.05
2023-03-16T08:44:03.520Z,8.26
2023-03-16T08:46:45.036Z,7.90
2023-03-16T08:49:34.287Z,8.13
2023-03-16T08:52:23.785Z,8.22
2023-03-16T08:55:03.797Z,8.35
2023-03-16T08:57:47.179Z,8.60
2023-03-16T09:00:28.460Z,8.40
2023-03-16T09:03:07.331Z,8.55
2023-03-16T09:05:45.252Z,8.75
2023-03-16T09:08:31.350Z,8.60
2023-03-16T09:11:21.512Z,8.53
2023-03-16T09:14:02.828Z,8.60
2023-03-16T09:16:43.209Z,8.51
2023-03-16T09:19:20.085Z,8.83
2023-03-16T09:22:08.601Z,8.89
2023-03-16T09:24:49.470Z,8.64
2023-03-16T09:30:29.812Z,9.14
2023-03-16T09:33:10.381Z,8.82
2023-03-16T09:35:58.146Z,8.66
2023-03-16T09:38:37.480Z,8.72
2023-03-16T09:41:30.924Z,8.77
2023-03-16T09:44:39.149Z,8.78
2023-03-16T09:47:16.789Z,8.64
2023-03-16T09:50:09.910Z,8.76
2023-03-16T09:53:05.360Z,8.98
2023-03-16T09:55:57.454Z,8.85
2023-03-16T09:58:47.182Z,9.08
2023-03-16T10:01:47.144Z,9.08
2023-03-16T10:04:45.172Z,9.40
2023-03-16T10:07:48.694Z,9.15
2023-03-16T10:10:53.553Z,9.24
2023-03-16T10:14:14.261Z,9.60
2023-03-16T10:17:01.090Z,9.87
2023-03-16T10:19:49.859Z,9.64
2023-03-16T10:22:41.114Z,9.76
2023-03-16T10:25:52.333Z,10.04
2023-03-16T10:28:40.996Z,9.62
2023-03-16T10:31:31.459Z,9.53
2023-03-16T10:34:15.618Z,9.68
2023-03-16T10:36:58.452Z,9.75
2023-03-16T10:39:44.278Z,9.82
2023-03-16T10:42:27.548Z,9.70
2023-03-16T10:45:20.069Z,10.08
2023-03-16T10:48:10.335Z,10.17
2023-03-16T10:50:54.619Z,10.22
2023-03-16T10:53:42.372Z,10.21
2023-03-16T10:56:38.489Z,10.19
2023-03-16T10:59:49.059Z,10.50
2023-03-16T11:02:30.525Z,10.57
2023-03-16T11:05:28.285Z,10.33
2023-03-16T11:08:18.893Z,10.37
2023-03-16T11:11:02.818Z,10.80
2023-03-16T11:13:54.290Z,10.87
2023-03-16T11:16:52.372Z,10.85
2023-03-16T11:19:59.688Z,10.90
2023-03-16T11:22:42.243Z,10.63
2023-03-16T11:25:30.790Z,10.63
2023-03-16T11:28:28.231Z,10.60
2023-03-16T11:31:35.145Z,10.76
2023-03-16T11:34:18.891Z,10.91
2023-03-16T11:37:03.219Z,10.61
2023-03-16T11:40:06.562Z,10.48
2023-03-16T11:42:47.071Z,10.62
2023-03-16T11:45:45.755Z,10.89
2023-03-16T11:48:36.792Z,11.04
2023-03-16T11:51:44.619Z,11.26
2023-03-16T11:54:59.956Z,11.66
2023-03-16T11:58:04.613Z,11.35
2023-03-16T12:00:56.491Z,11.28
2023-03-16T12:04:18.470Z,11.37
2023-03-16T12:07:13.199Z,11.12
2023-03-16T12:10:26.834Z,11.30
2023-03-16T12:13:33.824Z,11.37
2023-03-16T12:16:25.170Z,11.97
2023-03-16T12:19:10.796Z,11.60
2023-03-16T12:21:53.699Z,10.72
2023-03-16T12:24:37.351Z,11.04
2023-03-16T12:27:39.163Z,11.21
2023-03-16T12:30:37.200Z,11.35
2023-03-16T12:33:47.526Z,11.53
2023-03-16T12:37:02.832Z,11.22
2023-03-16T12:39:41.268Z,10.98
2023-03-16T12:42:49.993Z,11.56
2023-03-16T12:45:46.248Z,11.84
2023-03-16T12:48:46.290Z,11.95
2023-03-16T12:51:21.462Z,11.71
2023-03-16T12:54:03.286Z,11.45
2023-03-16T12:56:50.651Z,11.62
2023-03-16T12:59:46.892Z,11.59
2023-03-16T13:02:45.564Z,11.86
2023-03-16T13:05:51.038Z,11.94
2023-03-16T13:08:26.101Z,11.37
2023-03-16T13:11:30.264Z,11.40
2023-03-16T13:14:33.810Z,11.27
2023-03-16T13:17:25.129Z,11.19
2023-03-16T13:20:42.743Z,11.65
2023-03-16T13:23:31.623Z,11.73
2023-03-16T13:26:22.009Z,11.95
2023-03-16T13:29:08.039Z,12.04
2023-03-16T13:31:55.283Z,12.09
2023-03-16T13:34:51.814Z,12.06
2023-03-16T13:37:42.687Z,12.05
2023-03-16T13:40:38.039Z,12.10
2023-03-16T13:43:22.195Z,12.00
2023-03-16T13:46:05.395Z,12.05
2023-03-16T13:48:49.093Z,11.79
2023-03-16T13:51:36.079Z,11.93
2023-03-16T13:54:37.832Z,12.15
2023-03-16T13:57:20.633Z,11.80
2023-03-16T14:00:06.830Z,11.70
2023-03-16T14:02:55.708Z,12.04
2023-03-16T14:05:40.702Z,12.14
2023-03-16T14:08:29.851Z,12.17
2023-03-16T14:11:09.042Z,12.21
2023-03-16T14:14:00.244Z,11.70
2023-03-16T14:16:40.441Z,11.87
2023-03-16T14:19:38.227Z,11.96
2023-03-16T14:22:19.028Z,11.84
2023-03-16T14:25:05.814Z,11.70
2023-03-16T14:28:05.692Z,11.60
2023-03-16T14:30:55.222Z,12.04
2023-03-16T14:33:42.119Z,11.99
2023-03-16T14:36:22.115Z,12.10
2023-03-16T14:39:09.636Z,11.60
2023-03-16T14:41:49.922Z,11.82
2023-03-16T14:44:40.796Z,12.19
2023-03-16T14:47:28.196Z,11.89
2023-03-16T14:50:26.165Z,11.33
2023-03-16T14:53:07.758Z,11.63
2023-03-16T14:55:48.498Z,11.47
2023-03-16T14:58:26.172Z,11.20
2023-03-16T15:01:14.990Z,11.16
2023-03-16T15:03:53.546Z,11.39
2023-03-16T15:06:32.908Z,11.44
2023-03-16T15:09:31.639Z,11.63
2023-03-16T15:12:26.705Z,11.28
2023-03-16T15:15:17.722Z,10.97
2023-03-16T15:17:58.060Z,11.25
2023-03-16T15:20:50.062Z,11.47
2023-03-16T15:23:34.369Z,11.22
2023-03-16T15:26:21.945Z,11.34
2023-03-16T15:29:07.530Z,10.98
2023-03-16T15:31:47.979Z,11.27
2023-03-16T15:34:30.639Z,11.56
2023-03-16T15:37:23.462Z,11.55
2023-03-16T15:40:04.834Z,12.09
2023-03-16T15:42:47.983Z,12.05
2023-03-16T15:45:31.506Z,13.05
2023-03-16T15:48:23.551Z,13.29
2023-03-16T15:51:16.229Z,13.55
2023-03-16T15:53:59.565Z,14.42
2023-03-16T15:56:50.996Z,13.24
2023-03-16T15:59:38.167Z,13.01
2023-03-16T16:02:35.186Z,13.88
2023-03-16T16:05:20.922Z,13.91
2023-03-16T16:08:09.162Z,13.93
2023-03-16T16:11:12.159Z,12.71
2023-03-16T16:13:49.404Z,11.97
2023-03-16T16:16:37.371Z,12.58
2023-03-16T16:19:27.841Z,11.23
2023-03-16T16:22:13.190Z,10.69
2023-03-16T16:24:56.990Z,9.89
2023-03-16T16:27:32.350Z,9.43
2023-03-16T16:30:14.492Z,9.16
2023-03-16T16:32:50.271Z,9.10
2023-03-16T16:35:31.961Z,8.95
2023-03-16T16:38:16.142Z,9.02
2023-03-16T16:40:58.593Z,9.13
2023-03-16T16:43:47.753Z,8.80
2023-03-16T16:46:29.364Z,8.34
2023-03-16T16:49:23.175Z,8.11
2023-03-16T16:52:01.800Z,7.83
2023-03-16T16:54:37.019Z,7.57
2023-03-16T16:57:25.208Z,7.34
2023-03-16T17:00:10.138Z,7.18
2023-03-16T17:02:57.563Z,6.93
2023-03-16T17:05:35.484Z,6.80
2023-03-16T17:08:25.122Z,6.65
2023-03-16T17:11:07.210Z,6.35
2023-03-16T17:13:48.338Z,6.03
2023-03-16T17:16:33.361Z,5.78
2023-03-16T17:19:23.346Z,5.41
2023-03-16T17:22:02.542Z,5.17
2023-03-16T17:24:46.104Z,5.04
2023-03-16T17:27:29.639Z,4.91
2023-03-16T17:30:08.318Z,4.65
2023-03-16T17:32:46.849Z,4.60
2023-03-16T17:35:30.788Z,4.47
2023-03-16T17:38:18.250Z,4.07
2023-03-16T17:41:00.947Z,3.79
2023-03-16T17:43:41.318Z,3.60
2023-03-16T17:46:25.577Z,3.64
2023-03-16T17:49:03.425Z,3.58
2023-03-16T17:51:39.828Z,3.35
2023-03-16T17:54:15.877Z,3.43
2023-03-16T17:56:58.445Z,3.36
2023-03-16T17:59:35.619Z,3.34
2023-03-16T18:02:35.184Z,3.29
2023-03-16T18:05:29.620Z,3.14
2023-03-16T18:08:30.593Z,3.02
2023-03-16T18:11:20.632Z,2.91
2023-03-16T18:14:08.573Z,2.77
2023-03-16T18:16:52.406Z,2.63
2023-03-16T18:19:40.044Z,2.48
2023-03-16T18:22:35.689Z,2.34
2023-03-16T18:25:44.806Z,2.28
2023-03-16T18:28:28.173Z,2.29
2023-03-16T18:31:20.396Z,2.20
2023-03-16T18:33:59.824Z,2.11
2023-03-16T18:36:45.891Z,1.95
2023-03-16T18:39:27.972Z,1.92
2023-03-16T18:42:09.261Z,1.71
2023-03-16T18:44:50.220Z,1.53
2023-03-16T18:47:32.897Z,1.39
2023-03-16T18:50:31.178Z,1.41
2023-03-16T18:53:11.815Z,1.19
2023-03-16T18:55:52.038Z,0.95
2023-03-16T18:58:41.584Z,1.23
2023-03-16T19:01:29.652Z,1.30
2023-03-16T19:04:10.826Z,1.42
2023-03-16T19:06:54.154Z,1.38
2023-03-16T19:09:36.068Z,1.33
2023-03-16T19:12:19.404Z,1.27
2023-03-16T19:15:15.862Z,1.25
2023-03-16T19:17:50.139Z,1.42
2023-03-16T19:20:40.674Z,1.52
2023-03-16T19:23:33.786Z,1.71
2023-03-16T19:26:08.263Z,1.95
2023-03-16T19:28:50.151Z,2.01
2023-03-16T19:31:41.879Z,2.02
2023-03-16T19:34:27.364Z,1.95
2023-03-16T19:37:15.826Z,1.98
2023-03-16T19:39:59.136Z,1.85
2023-03-16T19:42:42.327Z,1.71
2023-03-16T19:45:29.899Z,1.54
2023-03-16T19:48:24.185Z,1.44
2023-03-16T19:51:11.153Z,1.31
2023-03-16T19:53:56.295Z,1.28
2023-03-16T19:56:36.866Z,1.24
2023-03-16T19:59:35.640Z,1.30
2023-03-16T20:02:38.878Z,1.22
2023-03-16T20:05:18.588Z,1.05
2023-03-16T20:08:08.759Z,0.78
2023-03-16T20:10:43.491Z,0.63
2023-03-16T20:13:24.541Z,0.38
2023-03-16T20:16:00.972Z,0.27
2023-03-16T20:18:35.839Z,0.22
2023-03-16T20:21:21.320Z,0.14
2023-03-16T20:24:11.637Z,0.18
2023-03-16T20:26:47.910Z,0.30
2023-03-16T20:29:42.308Z,0.24
2023-03-16T20:32:32.948Z,0.15
2023-03-16T20:35:23.170Z,0.22
2023-03-16T20:37:58.264Z,0.33
2023-03-16T20:40:49.482Z,0.21
2023-03-16T20:43:44.324Z,-0.12
2023-03-16T20:46:27.750Z,-0.03
2023-03-16T20:49:02.441Z,-0.12
2023-03-16T20:51:51.116Z,-0.27
2023-03-16T20:54:37.494Z,-0.40
2023-03-16T20:57:24.102Z,-0.52
2023-03-16T21:00:02.604Z,-0.61
2023-03-16T21:02:41.450Z,-0.59
2023-03-16T21:05:30.020Z,-0.80
2023-03-16T21:08:08.965Z,-0.76
2023-03-16T21:10:50.925Z,-1.04
2023-03-16T21:13:33.166Z,-1.02
2023-03-16T21:16:08.910Z,-1.06
2023-03-16T21:18:49.830Z,-1.18
2023-03-16T21:21:27.544Z,-1.23
2023-03-16T21:24:08.165Z,-1.24
2023-03-16T21:26:55.119Z,-1.28
2023-03-16T21:29:30.254Z,-1.35
2023-03-16T21:35:18.673Z,-1.41
2023-03-16T21:37:59.617Z,-1.28
2023-03-16T21:40:39.564Z,-1.23
2023-03-16T21:43:17.708Z,-1.25
2023-03-16T21:46:04.123Z,-1.25
2023-03-16T21:48:46.947Z,-1.22
2023-03-16T21:51:29.441Z,-1.11
2023-03-16T21:54:17.838Z,-1.20
2023-03-16T21:56:59.790Z,-1.22
2023-03-16T21:59:54.447Z,-1.28
2023-03-16T22:02:34.853Z,-1.43
2023-03-16T22:05:30.621Z,-1.57
2023-03-16T22:08:29.069Z,-1.65
2023-03-16T22:11:08.601Z,-1.87
2023-03-16T22:14:03.043Z,-1.79
2023-03-16T22:16:47.810Z,-1.75
2023-03-16T22:19:38.784Z,-1.82
2023-03-16T22:22:23.050Z,-1.79
2023-03-16T22:25:05.672Z,-2.03
2023-03-16T22:27:48.266Z,-2.10
2023-03-16T22:30:34.250Z,-2.14
2023-03-16T22:33:21.803Z,-2.11
2023-03-16T22:36:16.647Z,-2.16
2023-03-16T22:39:00.094Z,-2.11
2023-03-16T22:41:44.147Z,-2.23
2023-03-16T22:44:37.247Z,-2.18
2023-03-16T22:47:37.107Z,-2.29
2023-03-16T22:50:25.146Z,-2.35
2023-03-16T22:53:16.540Z,-2.43
2023-03-16T22:56:02.336Z,-2.53
2023-03-16T22:59:00.329Z,-2.63
2023-03-16T23:01:52.473Z,-2.66
2023-03-16T23:04:30.522Z,-2.67
2023-03-16T23:07:12.953Z,-2.66
2023-03-16T23:09:56.931Z,-2.69
2023-03-16T23:12:40.348Z,-2.70
2023-03-16T23:15:32.691Z,-2.64
2023-03-16T23:18:18.149Z,-2.68
2023-03-16T23:20:54.400Z,-2.71
2023-03-16T23:23:35.439Z,-2.74
2023-03-16T23:26:23.340Z,-2.78
2023-03-16T23:29:05.617Z,-2.81
2023-03-16T23:31:57.013Z,-2.76
2023-03-16T23:34:46.470Z,-2.90
2023-03-16T23:37:30.742Z,-2.92
2023-03-16T23:40:12.096Z,-3.01
2023-03-16T23:42:52.186Z,-3.04
2023-03-16T23:45:40.874Z,-3.10
2023-03-16T23:48:25.698Z,-3.13
2023-03-16T23:51:07.389Z,-3.23
2023-03-16T23:53:54.733Z,-3.34
2023-03-16T23:56:41.590Z,-3.38
2023-03-16T23:59:22.258Z,-3.38
